map of VAV home
VAV - Airport
Location
City:  Vava'u, Vava'u, Tonga
Name:Vava'u International Airport
Old (Alt.):Lupepau'u International Airport
ICAO:NFTV
IATA:VAV

Details
Type:Airport (Aerodrome, Airfield)
Use:International (customs port of entry)
Latitude:1835'05"S (-18.584666)
Longitude:17358'07"W (-173.968499)
Elevation:236 ft (72 m)
Variation:12.92E (WMM2015 magnetic declination)
0.04 annual change
Runways:1
Longest:5593 × 98 ft (1705 × 30 m), paved

Time
Time Zone:UTC+13
Local Time:

Weather
METAR:NFTV 191500Z 00000KT 9999 -SHRA SCT009 SCT017TCU OVC110 25/24 Q1012
TAF:NFTV 191130Z 1912/2012 34005KT 9999 -SHRA SCT016 BKN100
TEMPO 1912/2012 3000 TSRA BKN015 FEW018CB

Related Locations
Nearby:
Farthest:INF: 12361 mi / 19892 km
In Guezzam [In Guezzam Airport], 11, DZ

Find:

   beyond  
but within

Other Information
Maps:
NOTAMs:
Links:
Sources:

  
  • flag of Tonga
  

Sectional Chart

Flight Planning
at skyvector.com

Satellite Image

Google Maps Satellite view

 

Copyright © 2004-2018 Karl L. Swartz. All rights reserved.
The Great Circle Mapper name and logo are trademarks of the Great Circle Mapper.
All other trademarks mentioned herein belong to their respective owners.
Please see credits for attibutions and further copyright information.

  Follow gcmap on Facebook Follow gcmap on Twitter Follow gcmap on Google+ GCmap on LinkedIn

hCard Microformat

Geo Microformat